Time;durP1;ratioP1;P1;durP2;ratioP2;P2;SDS_P1;SDS_P2;PMS_P1;PMS_P2;Temp;Humidity;BMP_temperature;BMP_pressure;BME280_temperature;BME280_humidity;BME280_pressure;Samples;Min_cycle;Max_cycle;Signal;HPM_P1;HPM_P2
2022/09/13 00:00:58;;;;;;;9.03;4.63;;;;;;;18.25;60.25;99746.44;5100996;28;20486;-64
2022/09/13 00:03:28;;;;;;;5.43;4.70;;;;;;;18.25;60.04;99757.25;5116908;28;20472;-64
2022/09/13 00:05:55;;;;;;;7.53;4.80;;;;;;;18.30;59.50;99756.66;5113166;28;20504;-64
2022/09/13 00:08:23;;;;;;;6.13;4.80;;;;;;;18.42;58.94;99759.63;5115715;28;21371;-66
2022/09/13 00:10:50;;;;;;;4.80;4.40;;;;;;;18.56;58.47;99763.19;5121272;28;20482;-66
2022/09/13 00:13:17;;;;;;;5.10;4.50;;;;;;;18.59;58.72;99757.34;5106037;28;20435;-66
2022/09/13 00:15:45;;;;;;;6.57;5.03;;;;;;;18.66;58.21;99760.06;5102252;28;20462;-64
2022/09/13 00:18:11;;;;;;;7.27;4.93;;;;;;;18.75;57.90;99764.28;5120838;28;20464;-65
2022/09/13 00:20:38;;;;;;;4.90;3.90;;;;;;;18.77;57.70;99757.59;5112394;28;20486;-64
2022/09/13 00:23:05;;;;;;;5.63;4.60;;;;;;;18.85;57.19;99753.06;5093727;28;20451;-64
2022/09/13 00:25:33;;;;;;;5.90;5.03;;;;;;;18.71;57.91;99753.00;5100397;28;20540;-65
2022/09/13 00:28:00;;;;;;;11.00;4.40;;;;;;;18.58;58.19;99753.00;5100926;28;20428;-64
2022/09/13 00:30:26;;;;;;;4.60;4.20;;;;;;;18.52;58.49;99751.94;5099974;28;20506;-65
2022/09/13 00:32:53;;;;;;;4.50;4.10;;;;;;;18.47;58.58;99743.59;5120103;28;20872;-64
2022/09/13 00:35:20;;;;;;;5.73;4.57;;;;;;;18.34;59.27;99732.72;5117083;28;20522;-65
2022/09/13 00:37:46;;;;;;;5.50;4.90;;;;;;;18.29;59.57;99729.81;5100490;28;20452;-66
2022/09/13 00:40:13;;;;;;;5.10;4.60;;;;;;;18.36;59.15;99727.94;5099915;28;20452;-66
2022/09/13 00:42:41;;;;;;;5.60;5.00;;;;;;;18.27;59.27;99719.19;5100468;28;20518;-66
2022/09/13 00:45:15;;;;;;;6.67;4.90;;;;;;;18.36;59.09;99723.34;5100199;28;20503;-67
2022/09/13 00:47:46;;;;;;;5.43;4.70;;;;;;;18.49;58.75;99716.31;5118777;28;20476;-66
2022/09/13 00:50:18;;;;;;;5.07;4.57;;;;;;;18.51;58.63;99719.66;5115881;28;20443;-66
2022/09/13 00:52:47;;;;;;;4.90;4.40;;;;;;;18.44;59.05;99716.94;5119304;28;20899;-66
2022/09/13 00:55:19;;;;;;;5.80;4.50;;;;;;;18.41;59.48;99723.56;5119949;28;20443;-65
2022/09/13 00:57:47;;;;;;;4.87;4.37;;;;;;;18.44;59.38;99720.47;5101766;28;20519;-65
2022/09/13 01:00:16;;;;;;;4.97;4.47;;;;;;;18.51;58.78;99714.25;5099073;28;20483;-65
2022/09/13 01:02:47;;;;;;;5.03;4.40;;;;;;;18.55;58.69;99715.50;5109564;28;20439;-65
2022/09/13 01:05:14;;;;;;;4.67;4.10;;;;;;;18.57;58.73;99708.81;5107007;28;20810;-65
2022/09/13 01:07:41;;;;;;;5.00;4.40;;;;;;;18.53;58.71;99702.16;5091579;28;21046;-65
2022/09/13 01:10:09;;;;;;;7.30;5.10;;;;;;;18.54;58.82;99700.28;5099054;28;20449;-65
2022/09/13 01:12:42;;;;;;;5.23;4.20;;;;;;;18.67;58.40;99697.59;5115205;28;20513;-65
2022/09/13 01:15:11;;;;;;;6.03;4.83;;;;;;;18.52;59.03;99697.81;5104557;28;20440;-65
2022/09/13 01:17:39;;;;;;;7.13;4.93;;;;;;;18.53;58.70;99687.81;5098641;28;20459;-65
2022/09/13 01:20:07;;;;;;;5.77;4.77;;;;;;;18.50;59.08;99691.75;5099733;28;20455;-65
2022/09/13 01:23:03;;;;;;;8.07;5.07;;;;;;;18.49;59.27;99692.78;5098897;28;20463;-65
2022/09/13 01:25:59;;;;;;;5.20;4.60;;;;;;;18.51;58.97;99685.28;5114637;28;20474;-65
2022/09/13 01:28:47;;;;;;;5.80;4.80;;;;;;;18.65;58.66;99691.56;5087282;28;20479;-66
2022/09/13 01:31:18;;;;;;;5.47;4.93;;;;;;;18.51;59.02;99685.28;5098162;28;20483;-65
2022/09/13 01:33:54;;;;;;;5.27;4.77;;;;;;;18.60;59.10;99677.81;5097834;28;20468;-65
2022/09/13 01:36:36;;;;;;;6.70;5.03;;;;;;;18.64;58.67;99679.03;5098131;28;20503;-65
2022/09/13 01:39:05;;;;;;;5.63;4.70;;;;;;;18.62;58.64;99678.44;5117904;28;20465;-66
2022/09/13 01:41:45;;;;;;;5.90;4.67;;;;;;;18.63;58.83;99680.09;5118542;28;20470;-66
2022/09/13 01:44:18;;;;;;;5.63;4.83;;;;;;;18.63;58.92;99680.09;5098979;28;20507;-66
2022/09/13 01:46:50;;;;;;;6.20;4.57;;;;;;;18.61;58.59;99674.91;5097556;28;20468;-65
2022/09/13 01:49:20;;;;;;;5.37;4.87;;;;;;;18.52;59.05;99676.16;5096496;28;20517;-66
2022/09/13 01:51:49;;;;;;;6.60;4.70;;;;;;;18.73;58.60;99677.81;5098181;28;20868;-66
2022/09/13 01:54:19;;;;;;;6.30;4.53;;;;;;;18.72;58.88;99681.56;5113878;28;20472;-66
2022/09/13 01:56:53;;;;;;;8.00;4.77;;;;;;;18.73;58.67;99677.81;5101981;28;20464;-65
2022/09/13 01:59:24;;;;;;;4.97;4.00;;;;;;;18.66;58.73;99679.66;5098492;28;20454;-65
2022/09/13 02:01:55;;;;;;;6.67;4.90;;;;;;;18.63;58.96;99680.94;5113832;28;20507;-65
2022/09/13 02:04:24;;;;;;;5.50;4.40;;;;;;;18.67;58.73;99678.63;5098009;28;20483;-66
2022/09/13 02:06:54;;;;;;;5.13;4.60;;;;;;;18.62;59.14;99686.56;5117722;28;20474;-64
2022/09/13 02:09:23;;;;;;;7.33;4.63;;;;;;;18.65;58.89;99680.72;5114470;28;20525;-64
2022/09/13 02:11:53;;;;;;;5.70;4.43;;;;;;;18.76;58.92;99687.38;5099127;28;20499;-65
2022/09/13 02:14:23;;;;;;;4.33;3.87;;;;;;;18.70;59.52;99686.34;5103569;28;20470;-65
2022/09/13 02:16:54;;;;;;;8.50;4.77;;;;;;;18.63;59.49;99690.94;5106461;28;20858;-65
2022/09/13 02:19:24;;;;;;;4.83;3.93;;;;;;;18.61;59.32;99685.72;5098393;28;20448;-67
2022/09/13 02:21:53;;;;;;;4.70;4.30;;;;;;;18.66;59.93;99686.97;5097852;28;20514;-67
2022/09/13 02:24:23;;;;;;;6.43;4.40;;;;;;;18.61;60.35;99687.59;5099127;28;20468;-66
2022/09/13 02:26:52;;;;;;;4.60;4.20;;;;;;;18.59;60.05;99679.69;5097706;28;20476;-65
2022/09/13 02:29:20;;;;;;;5.07;4.10;;;;;;;18.61;60.37;99687.59;5113376;28;20506;-66
2022/09/13 02:31:50;;;;;;;4.50;3.83;;;;;;;18.63;60.37;99677.41;5104918;28;20609;-65
2022/09/13 02:34:20;;;;;;;4.17;3.77;;;;;;;18.58;61.38;99679.91;5072622;28;20414;-66
2022/09/13 02:36:48;;;;;;;4.47;3.80;;;;;;;18.54;61.80;99678.63;5077710;28;20563;-66
2022/09/13 02:39:16;;;;;;;5.07;4.47;;;;;;;18.53;61.52;99682.38;5099140;28;20458;-65
2022/09/13 02:41:48;;;;;;;5.60;4.27;;;;;;;18.53;61.33;99672.38;5098659;28;20496;-66
2022/09/13 02:44:19;;;;;;;4.53;3.70;;;;;;;18.49;61.29;99675.69;5115352;28;20470;-66
2022/09/13 02:46:57;;;;;;;4.53;4.10;;;;;;;18.65;60.41;99664.47;5098530;28;20511;-65
2022/09/13 02:49:30;;;;;;;4.20;3.73;;;;;;;18.75;60.94;99662.19;5102507;28;21170;-65
2022/09/13 02:52:06;;;;;;;12.23;4.77;;;;;;;18.69;62.02;99662.19;5101693;28;21120;-65
2022/09/13 02:54:37;;;;;;;4.50;3.90;;;;;;;18.65;61.77;99663.66;5117445;28;21217;-66
2022/09/13 02:57:07;;;;;;;4.57;4.17;;;;;;;18.51;63.67;99670.94;5122617;28;20498;-65
2022/09/13 02:59:35;;;;;;;5.40;4.43;;;;;;;18.63;62.35;99663.88;5122740;28;20484;-65
2022/09/13 03:02:04;;;;;;;4.77;4.27;;;;;;;18.55;64.40;99653.22;5122237;28;20483;-66
2022/09/13 03:04:33;;;;;;;5.70;5.10;;;;;;;18.50;65.46;99661.13;5108981;28;20463;-66
2022/09/13 03:07:00;;;;;;;6.80;4.40;;;;;;;18.32;66.77;99659.88;5101191;28;20530;-66
2022/09/13 03:09:27;;;;;;;4.97;4.30;;;;;;;18.18;67.74;99658.19;5118356;28;20474;-66
2022/09/13 03:12:02;;;;;;;5.47;4.87;;;;;;;18.08;68.59;99655.03;5122240;27;20476;-66
2022/09/13 03:14:36;;;;;;;5.00;4.50;;;;;;;18.17;66.19;99653.81;5122270;28;20514;-66
2022/09/13 03:17:13;;;;;;;5.73;4.70;;;;;;;18.23;66.61;99656.53;5121974;28;20490;-66
2022/09/13 03:19:51;;;;;;;6.43;5.10;;;;;;;18.31;65.11;99654.66;5122173;28;20439;-66
2022/09/13 03:22:46;;;;;;;6.13;4.40;;;;;;;18.36;65.13;99649.47;5120658;28;20502;-66
2022/09/13 03:25:19;;;;;;;4.87;4.47;;;;;;;18.38;66.03;99641.97;5117037;28;20493;-66
2022/09/13 03:27:52;;;;;;;4.33;3.93;;;;;;;18.30;65.62;99647.56;5103577;28;20440;-66
2022/09/13 03:30:19;;;;;;;6.53;4.83;;;;;;;18.33;65.44;99660.69;5109909;28;20490;-66
2022/09/13 03:32:50;;;;;;;6.60;4.50;;;;;;;18.38;64.52;99659.06;5101815;28;20459;-66
2022/09/13 03:35:25;;;;;;;4.27;3.87;;;;;;;18.41;64.24;99652.38;5101141;28;20435;-67
2022/09/13 03:37:56;;;;;;;4.00;3.60;;;;;;;18.51;63.21;99644.69;5112597;28;20459;-64
2022/09/13 03:40:32;;;;;;;6.87;4.50;;;;;;;18.50;64.48;99651.13;5121436;28;20461;-66
2022/09/13 03:43:04;;;;;;;4.90;4.40;;;;;;;18.39;63.82;99658.00;5102503;28;20486;-66
2022/09/13 03:45:34;;;;;;;4.07;3.67;;;;;;;18.43;64.02;99648.41;5097355;28;20478;-67
2022/09/13 03:48:03;;;;;;;4.13;3.73;;;;;;;18.36;64.17;99634.06;5093644;28;20449;-66
2022/09/13 03:50:31;;;;;;;6.63;4.13;;;;;;;18.32;63.66;99630.09;5101337;28;20944;-66
2022/09/13 03:53:01;;;;;;;4.60;4.20;;;;;;;18.27;64.89;99643.41;5101125;28;20487;-66
2022/09/13 03:55:28;;;;;;;5.20;4.70;;;;;;;18.23;64.23;99639.47;5108296;28;20459;-67
2022/09/13 03:57:55;;;;;;;7.13;4.73;;;;;;;18.17;64.43;99632.97;5122153;28;20430;-66
2022/09/13 04:00:22;;;;;;;4.33;3.93;;;;;;;18.20;64.10;99631.75;5102421;28;20454;-67
2022/09/13 04:02:49;;;;;;;6.23;4.70;;;;;;;18.19;63.91;99643.59;5104998;28;20463;-66
2022/09/13 04:05:16;;;;;;;6.57;4.43;;;;;;;18.24;64.47;99638.41;5100707;28;20567;-66
2022/09/13 04:07:44;;;;;;;4.20;3.80;;;;;;;18.21;64.35;99644.22;5101245;28;20546;-67
2022/09/13 04:10:12;;;;;;;4.33;3.70;;;;;;;18.16;64.31;99644.84;5100258;28;20843;-66
2022/09/13 04:12:40;;;;;;;5.67;4.10;;;;;;;18.09;65.00;99641.31;5101597;28;20436;-67
2022/09/13 04:15:08;;;;;;;6.37;4.47;;;;;;;18.11;64.81;99646.53;5111212;28;20456;-64
2022/09/13 04:17:35;;;;;;;4.23;3.73;;;;;;;18.01;65.86;99650.44;5100171;28;20468;-65
2022/09/13 04:20:03;;;;;;;5.30;4.47;;;;;;;17.88;68.28;99651.22;5112090;28;20538;-65
2022/09/13 04:22:30;;;;;;;4.37;3.93;;;;;;;17.88;68.55;99648.53;5107037;28;21115;-65
2022/09/13 04:24:58;;;;;;;6.40;4.43;;;;;;;17.95;68.59;99659.38;5100696;28;20432;-65
2022/09/13 04:27:25;;;;;;;5.70;5.10;;;;;;;17.93;68.77;99657.91;5082495;28;20483;-66
2022/09/13 04:29:52;;;;;;;6.53;4.23;;;;;;;17.88;68.76;99661.22;5089494;28;20466;-65
2022/09/13 04:32:18;;;;;;;5.30;4.80;;;;;;;17.88;68.85;99650.41;5094406;28;21009;-66
2022/09/13 04:34:46;;;;;;;5.47;4.90;;;;;;;17.91;69.92;99663.50;5100165;28;20487;-65
2022/09/13 04:37:13;;;;;;;7.77;5.73;;;;;;;17.88;68.95;99661.22;5103959;28;20475;-65
2022/09/13 04:39:40;;;;;;;6.30;5.70;;;;;;;17.75;70.72;99661.97;5103568;28;20566;-66
2022/09/13 04:42:10;;;;;;;5.43;4.90;;;;;;;17.58;72.67;99663.34;5120323;28;20478;-65
2022/09/13 04:44:37;;;;;;;6.50;5.23;;;;;;;17.43;74.29;99667.03;5117377;28;20490;-65
2022/09/13 04:47:04;;;;;;;5.73;5.23;;;;;;;17.52;74.13;99661.47;5106241;28;20585;-65
2022/09/13 04:49:30;;;;;;;6.47;5.30;;;;;;;17.61;72.35;99660.25;5119795;28;20466;-65
2022/09/13 04:51:57;;;;;;;6.53;4.93;;;;;;;17.78;72.21;99649.91;5114131;28;20482;-65
2022/09/13 04:54:24;;;;;;;5.67;4.97;;;;;;;17.64;71.37;99660.69;5107377;28;20447;-65
2022/09/13 04:56:50;;;;;;;6.60;5.00;;;;;;;17.73;70.39;99652.41;5099606;28;20482;-65
2022/09/13 04:59:18;;;;;;;7.70;4.80;;;;;;;17.93;67.95;99647.91;5098139;28;20484;-65
2022/09/13 05:01:45;;;;;;;6.50;5.53;;;;;;;17.92;68.33;99645.44;5111415;28;20515;-64
2022/09/13 05:04:12;;;;;;;5.20;4.63;;;;;;;17.92;67.84;99643.53;5100100;28;20420;-65
2022/09/13 05:06:38;;;;;;;5.57;4.70;;;;;;;17.91;66.95;99644.56;5092183;28;20511;-64
2022/09/13 05:09:05;;;;;;;9.50;4.80;;;;;;;18.08;66.34;99644.22;5092223;28;20895;-64
2022/09/13 05:11:32;;;;;;;5.30;4.23;;;;;;;18.12;65.69;99643.59;5095203;28;20493;-69
2022/09/13 05:14:00;;;;;;;5.70;4.83;;;;;;;18.07;66.41;99648.78;5095723;28;20460;-61
2022/09/13 05:16:29;;;;;;;5.70;5.13;;;;;;;18.11;66.60;99641.09;5096157;28;20482;-69
2022/09/13 05:18:56;;;;;;;8.70;4.63;;;;;;;18.19;65.47;99643.59;5118408;28;20478;-69
2022/09/13 05:21:24;;;;;;;5.20;3.90;;;;;;;18.21;65.65;99642.38;5106037;28;20677;-69
2022/09/13 05:23:50;;;;;;;5.63;4.37;;;;;;;18.22;66.69;99640.50;5116612;28;20510;-69
2022/09/13 05:26:17;;;;;;;5.33;4.40;;;;;;;18.33;65.18;99639.03;5107228;28;20499;-69
2022/09/13 05:28:44;;;;;;;6.73;4.80;;;;;;;18.47;63.78;99637.19;5097940;28;20522;-68
2022/09/13 05:31:14;;;;;;;7.67;3.83;;;;;;;18.53;64.03;99633.66;5095267;28;20471;-69
2022/09/13 05:33:42;;;;;;;5.53;4.80;;;;;;;18.58;63.76;99628.47;5087514;28;20440;-69
2022/09/13 05:36:08;;;;;;;6.30;4.20;;;;;;;18.56;64.65;99638.66;5098079;28;20501;-68
2022/09/13 05:38:35;;;;;;;5.73;4.20;;;;;;;18.57;63.75;99635.72;5072483;28;20497;-70
2022/09/13 05:41:04;;;;;;;8.47;5.00;;;;;;;18.59;63.63;99640.94;5098620;28;20533;-69
2022/09/13 05:43:32;;;;;;;6.23;4.70;;;;;;;18.70;63.83;99642.22;5085333;28;20501;-69
2022/09/13 05:46:03;;;;;;;5.50;4.60;;;;;;;18.77;62.95;99646.56;5110275;28;20506;-69
2022/09/13 05:48:30;;;;;;;4.90;4.40;;;;;;;18.88;62.85;99645.13;5118855;28;20418;-70
2022/09/13 05:51:04;;;;;;;6.47;4.60;;;;;;;18.83;63.00;99639.50;5096648;27;20498;-70
2022/09/13 05:53:31;;;;;;;6.37;4.00;;;;;;;19.00;62.22;99631.78;5095904;28;20443;-68
2022/09/13 05:55:58;;;;;;;8.40;4.43;;;;;;;19.07;61.77;99634.47;5087095;28;20519;-68
2022/09/13 05:58:25;;;;;;;5.33;3.97;;;;;;;19.14;61.75;99633.41;5097183;28;20448;-69
2022/09/13 06:00:54;;;;;;;6.30;4.80;;;;;;;19.06;61.80;99641.78;5096818;28;20494;-69
2022/09/13 06:03:20;;;;;;;5.60;3.83;;;;;;;19.26;61.28;99625.47;5098740;28;20436;-69
2022/09/13 06:05:47;;;;;;;4.83;4.20;;;;;;;19.26;61.49;99627.34;5097201;28;20476;-69
2022/09/13 06:08:15;;;;;;;5.80;4.57;;;;;;;19.32;60.97;99629.19;5098608;28;20475;-69
2022/09/13 06:10:42;;;;;;;6.40;4.37;;;;;;;19.47;60.51;99637.09;5083469;28;21078;-69
2022/09/13 06:13:09;;;;;;;7.67;4.57;;;;;;;19.62;60.05;99634.13;5098343;28;20945;-69
2022/09/13 06:15:35;;;;;;;6.53;3.70;;;;;;;19.78;59.60;99644.50;5094268;28;20480;-69
2022/09/13 06:18:02;;;;;;;5.27;4.23;;;;;;;19.87;59.19;99647.78;5101393;28;20445;-69
2022/09/13 06:20:29;;;;;;;7.07;4.63;;;;;;;19.93;59.20;99645.06;5101822;28;20467;-69
2022/09/13 06:22:56;;;;;;;5.30;4.30;;;;;;;19.78;59.60;99655.34;5096401;28;20479;-69
2022/09/13 06:25:24;;;;;;;8.60;4.60;;;;;;;20.00;58.69;99653.16;5099641;28;20436;-70
2022/09/13 06:27:51;;;;;;;7.90;4.80;;;;;;;19.97;58.68;99650.06;5081617;28;20475;-70
2022/09/13 06:30:18;;;;;;;5.60;4.50;;;;;;;20.14;58.42;99653.91;5081928;28;20472;-69
2022/09/13 06:32:45;;;;;;;7.50;4.60;;;;;;;20.30;57.98;99645.25;5092786;28;20452;-69
2022/09/13 06:35:11;;;;;;;5.90;4.83;;;;;;;20.53;57.52;99649.25;5084200;28;20438;-68
2022/09/13 06:37:38;;;;;;;8.87;4.70;;;;;;;20.49;57.16;99640.72;5082461;28;20443;-69
2022/09/13 06:40:06;;;;;;;7.60;4.90;;;;;;;20.74;56.54;99644.53;5082097;28;20486;-69
2022/09/13 06:42:35;;;;;;;4.47;4.07;;;;;;;21.93;53.57;99647.84;5079423;28;20485;-69
2022/09/13 06:45:01;;;;;;;5.23;4.33;;;;;;;22.27;51.98;99648.25;5082294;28;20526;-69
2022/09/13 06:47:28;;;;;;;5.73;4.70;;;;;;;23.39;49.30;99656.66;5080431;28;21050;-70
2022/09/13 06:49:55;;;;;;;6.77;5.40;;;;;;;24.23;46.81;99643.38;5078845;28;20480;-70
2022/09/13 06:52:21;;;;;;;6.13;4.80;;;;;;;23.28;48.28;99656.44;5079998;28;20479;-70
2022/09/13 06:54:48;;;;;;;7.00;5.20;;;;;;;22.77;50.84;99659.84;5083566;28;20454;-70
2022/09/13 06:57:15;;;;;;;6.00;4.90;;;;;;;22.40;51.08;99643.69;5079298;28;20501;-70
2022/09/13 06:59:43;;;;;;;6.67;4.67;;;;;;;22.25;51.75;99646.78;5076028;28;20523;-69
2022/09/13 07:02:11;;;;;;;7.40;5.00;;;;;;;23.28;49.81;99644.72;5080116;28;20472;-69
2022/09/13 07:04:37;;;;;;;5.80;4.93;;;;;;;24.57;46.23;99650.81;5080617;28;21160;-69
2022/09/13 07:07:04;;;;;;;5.97;5.10;;;;;;;24.27;46.29;99646.44;5080161;28;20577;-70
2022/09/13 07:09:33;;;;;;;6.80;5.33;;;;;;;25.73;43.52;99646.47;5080682;28;21333;-70
2022/09/13 07:12:00;;;;;;;5.90;5.30;;;;;;;26.67;41.51;99650.75;5079199;28;20508;-70
2022/09/13 07:14:30;;;;;;;7.23;5.20;;;;;;;26.55;41.39;99652.00;5081479;28;20427;-70
2022/09/13 07:16:59;;;;;;;5.80;5.20;;;;;;;25.63;42.89;99662.78;5080694;28;20513;-70
2022/09/13 07:19:26;;;;;;;6.50;5.67;;;;;;;22.64;50.37;99669.06;5079677;28;20451;-69
2022/09/13 07:21:54;;;;;;;8.63;6.30;;;;;;;22.23;51.92;99657.09;5080500;28;20484;-69
2022/09/13 07:24:22;;;;;;;7.47;6.70;;;;;;;21.67;54.05;99662.63;5080367;28;21014;-69
2022/09/13 07:26:49;;;;;;;12.30;6.77;;;;;;;21.48;55.13;99650.94;5079047;28;20492;-69
2022/09/13 07:29:18;;;;;;;7.57;6.83;;;;;;;21.36;55.48;99664.41;5079281;28;20446;-69
2022/09/13 07:31:46;;;;;;;9.90;6.37;;;;;;;21.46;55.90;99663.94;5080842;28;20934;-70
2022/09/13 07:34:16;;;;;;;6.73;5.83;;;;;;;21.35;56.24;99659.19;5079979;28;21361;-69
2022/09/13 07:36:43;;;;;;;7.47;5.93;;;;;;;21.55;56.28;99661.75;5080091;28;20539;-69
2022/09/13 07:39:10;;;;;;;7.03;5.87;;;;;;;21.64;56.05;99660.38;5080244;28;20510;-69
2022/09/13 07:41:37;;;;;;;8.73;6.00;;;;;;;21.96;54.82;99663.72;5079227;28;20481;-69
2022/09/13 07:44:05;;;;;;;10.57;6.20;;;;;;;22.04;54.69;99668.00;5080860;28;20480;-69
2022/09/13 07:46:35;;;;;;;25.33;6.50;;;;;;;21.99;55.27;99670.59;5079760;28;20469;-70
2022/09/13 07:49:02;;;;;;;8.20;6.27;;;;;;;21.71;55.30;99663.84;5078685;28;20430;-69
2022/09/13 07:51:32;;;;;;;7.43;6.63;;;;;;;21.41;56.07;99677.34;5079927;28;20482;-69
2022/09/13 07:54:00;;;;;;;8.00;6.53;;;;;;;21.19;57.21;99683.19;5079491;28;20444;-69
2022/09/13 07:56:28;;;;;;;8.93;6.80;;;;;;;20.86;58.34;99688.94;5078078;28;21037;-69
2022/09/13 07:58:56;;;;;;;9.50;6.90;;;;;;;20.84;58.36;99677.47;5080484;28;20454;-69
2022/09/13 08:01:23;;;;;;;9.73;8.10;;;;;;;20.77;58.83;99688.38;5079459;27;20570;-69
2022/09/13 08:03:51;;;;;;;12.50;8.07;;;;;;;20.84;58.86;99683.72;5079992;28;20429;-69
2022/09/13 08:06:18;;;;;;;9.80;8.37;;;;;;;20.91;58.83;99675.53;5078960;27;20510;-69
2022/09/13 08:08:46;;;;;;;13.03;8.40;;;;;;;20.97;58.40;99682.78;5079599;28;20522;-69
2022/09/13 08:11:17;;;;;;;9.53;7.67;;;;;;;20.96;58.62;99685.72;5078722;28;20481;-69
2022/09/13 08:13:43;;;;;;;10.97;8.27;;;;;;;20.60;59.51;99685.34;5082058;28;20545;-69
2022/09/13 08:16:10;;;;;;;11.20;8.90;;;;;;;20.66;59.12;99689.94;5079848;28;20606;-69
2022/09/13 08:18:37;;;;;;;10.40;7.90;;;;;;;21.02;58.69;99688.41;5078807;28;21194;-69
2022/09/13 08:21:04;;;;;;;9.33;8.20;;;;;;;20.84;59.15;99681.00;5080187;28;20956;-69
2022/09/13 08:23:33;;;;;;;10.23;8.43;;;;;;;20.96;59.09;99691.16;5079889;28;20514;-69
2022/09/13 08:26:02;;;;;;;12.17;7.80;;;;;;;21.37;58.24;99693.28;5070118;28;20480;-69
2022/09/13 08:28:30;;;;;;;10.50;9.37;;;;;;;21.53;57.89;99691.88;5079639;28;20445;-70
2022/09/13 08:30:57;;;;;;;10.63;9.00;;;;;;;21.19;58.22;99699.50;5079579;28;20465;-70
2022/09/13 08:33:23;;;;;;;12.27;9.30;;;;;;;21.13;59.22;99699.59;5079574;28;20484;-68
2022/09/13 08:35:51;;;;;;;17.07;9.40;;;;;;;21.25;59.02;99706.78;5079687;28;20841;-68
2022/09/13 08:38:18;;;;;;;12.00;9.53;;;;;;;21.11;59.10;99707.97;5079310;28;20547;-68
2022/09/13 08:40:49;;;;;;;15.20;10.20;;;;;;;21.10;59.48;99717.16;5078452;28;20527;-68
2022/09/13 08:43:23;;;;;;;13.17;9.43;;;;;;;20.93;59.91;99707.91;5079948;28;20505;-68
2022/09/13 08:45:51;;;;;;;11.50;10.00;;;;;;;20.81;60.31;99710.50;5079429;28;20479;-67
2022/09/13 08:48:21;;;;;;;19.00;10.77;;;;;;;20.75;60.63;99701.38;5078531;28;20971;-68
2022/09/13 08:50:49;;;;;;;13.33;10.37;;;;;;;20.96;60.38;99712.91;5078231;28;20468;-67
2022/09/13 08:53:20;;;;;;;11.53;9.97;;;;;;;20.64;61.03;99710.22;5078763;28;20456;-67
2022/09/13 08:55:57;;;;;;;16.37;11.03;;;;;;;20.86;60.55;99713.38;5076670;28;20492;-67
2022/09/13 08:58:43;;;;;;;16.50;11.20;;;;;;;20.72;61.10;99709.94;5079582;28;20425;-68
2022/09/13 09:01:16;;;;;;;14.07;11.27;;;;;;;20.56;61.61;99707.75;5087569;28;20480;-68
2022/09/13 09:03:46;;;;;;;15.90;11.00;;;;;;;20.67;61.48;99707.06;5084419;28;20464;-68
2022/09/13 09:06:15;;;;;;;17.53;11.60;;;;;;;20.84;61.00;99713.59;5099097;28;20476;-68
2022/09/13 09:08:46;;;;;;;16.37;12.33;;;;;;;20.89;61.09;99704.81;5095856;28;20991;-67
2022/09/13 09:11:22;;;;;;;16.30;11.40;;;;;;;20.75;61.48;99703.25;5088138;28;20473;-68
2022/09/13 09:13:55;;;;;;;13.33;11.90;;;;;;;20.65;62.44;99703.72;5077989;28;20502;-67
2022/09/13 09:16:30;;;;;;;16.50;12.20;;;;;;;21.10;61.52;99698.13;5073239;28;20478;-68
2022/09/13 09:19:11;;;;;;;14.23;11.70;;;;;;;20.86;61.78;99707.97;5077725;28;20437;-67
2022/09/13 09:21:38;;;;;;;12.80;10.77;;;;;;;20.83;61.91;99705.69;5078392;28;20475;-68
2022/09/13 09:24:05;;;;;;;14.33;11.40;;;;;;;20.85;62.15;99700.88;5078727;28;20476;-67
2022/09/13 09:26:32;;;;;;;13.27;11.43;;;;;;;21.02;61.93;99704.69;5076297;28;20595;-67
2022/09/13 09:29:01;;;;;;;17.87;11.43;;;;;;;21.67;60.23;99705.34;5079167;28;20443;-66
2022/09/13 09:31:33;;;;;;;11.40;10.20;;;;;;;21.12;62.34;99701.47;5077881;28;20534;-67
2022/09/13 09:34:11;;;;;;;13.73;10.57;;;;;;;21.39;61.40;99703.94;5078420;28;20468;-66
2022/09/13 09:36:41;;;;;;;20.10;11.20;;;;;;;21.60;61.33;99706.22;5078209;28;20473;-67
2022/09/13 09:39:11;;;;;;;13.27;10.00;;;;;;;21.67;60.89;99705.34;5078614;28;20461;-67
2022/09/13 09:41:38;;;;;;;11.53;9.63;;;;;;;21.80;60.51;99703.28;5076801;28;20481;-68
2022/09/13 09:44:17;;;;;;;14.07;10.07;;;;;;;22.25;59.68;99710.25;5072259;28;20486;-68
2022/09/13 09:46:46;;;;;;;10.97;9.47;;;;;;;22.49;58.59;99700.28;5077528;28;20505;-68
2022/09/13 09:51:58;;;;;;;16.80;10.67;;;;;;;22.49;59.12;99710.38;5076668;28;20567;-68
2022/09/13 09:54:26;;;;;;;13.37;9.80;;;;;;;22.12;59.72;99700.38;5077422;28;20449;-67
2022/09/13 09:56:53;;;;;;;13.77;11.37;;;;;;;21.80;60.97;99699.72;5076997;28;20465;-68
2022/09/13 09:59:31;;;;;;;13.40;10.30;;;;;;;21.71;62.04;99714.69;5078872;28;20457;-68
2022/09/13 10:01:58;;;;;;;12.90;9.50;;;;;;;22.14;61.43;99698.25;5077045;28;20473;-68
2022/09/13 10:04:25;;;;;;;10.57;9.33;;;;;;;22.26;60.94;99697.47;5077633;28;20433;-68
2022/09/13 10:07:09;;;;;;;12.20;9.60;;;;;;;22.43;60.67;99692.22;5077864;28;20523;-67
2022/09/13 10:09:38;;;;;;;11.53;9.43;;;;;;;22.50;60.77;99690.25;5076847;28;20454;-68
2022/09/13 10:12:05;;;;;;;11.27;10.00;;;;;;;22.89;59.14;99702.38;5094481;28;20476;-68
2022/09/13 10:14:43;;;;;;;18.27;10.13;;;;;;;22.66;59.56;99699.63;5098813;28;20445;-68
2022/09/13 10:17:25;;;;;;;14.50;9.90;;;;;;;22.62;59.87;99703.88;5084447;28;20505;-68
2022/09/13 10:19:56;;;;;;;13.73;9.10;;;;;;;22.10;61.58;99705.22;5093275;28;20452;-66
2022/09/13 10:22:23;;;;;;;11.40;8.67;;;;;;;22.54;60.81;99703.16;5091163;28;20563;-67
2022/09/13 10:24:50;;;;;;;12.90;8.53;;;;;;;22.10;62.21;99698.91;5097629;28;20506;-67
2022/09/13 10:27:22;;;;;;;12.60;9.67;;;;;;;22.45;61.33;99698.28;5096511;28;20490;-66
2022/09/13 10:29:54;;;;;;;12.07;9.10;;;;;;;23.17;58.96;99700.06;5092808;28;20538;-67
2022/09/13 10:32:21;;;;;;;10.30;8.50;;;;;;;23.07;58.67;99695.19;5086695;28;20475;-67
2022/09/13 10:34:48;;;;;;;12.67;9.67;;;;;;;23.42;57.55;99710.75;5097937;28;20434;-68
2022/09/13 10:37:18;;;;;;;11.83;10.47;;;;;;;23.48;57.13;99698.88;5095229;28;20472;-68
2022/09/13 10:40:03;;;;;;;14.23;9.70;;;;;;;24.21;55.73;99700.13;5096852;28;20449;-68
2022/09/13 10:42:30;;;;;;;10.60;8.90;;;;;;;23.94;56.01;99701.75;5087329;28;20484;-69
2022/09/13 10:45:00;;;;;;;9.40;8.40;;;;;;;23.72;57.70;99691.47;5095568;28;20430;-69
2022/09/13 10:47:30;;;;;;;11.27;8.57;;;;;;;24.15;56.98;99694.84;5091077;28;20493;-69
2022/09/13 10:49:58;;;;;;;11.97;8.70;;;;;;;25.48;53.01;99686.09;5094929;28;20505;-69
2022/09/13 10:52:30;;;;;;;11.23;8.10;;;;;;;26.60;49.34;99683.03;5096356;28;20485;-70
2022/09/13 10:55:26;;;;;;;9.40;7.47;;;;;;;26.64;49.43;99677.88;5092084;28;20438;-70
2022/09/13 10:57:54;;;;;;;9.27;8.30;;;;;;;27.17;47.90;99686.25;5097214;28;20462;-69
2022/09/13 11:00:24;;;;;;;9.30;8.30;;;;;;;26.37;49.73;99680.59;5096048;28;20454;-69
2022/09/13 11:03:03;;;;;;;10.77;9.00;;;;;;;27.00;47.94;99687.22;5097418;28;20452;-69
2022/09/13 11:05:36;;;;;;;8.03;7.20;;;;;;;26.64;48.85;99689.66;5094017;28;20623;-69
2022/09/13 11:08:25;;;;;;;9.00;7.60;;;;;;;25.39;52.24;99684.91;5098670;28;20500;-69
2022/09/13 11:11:00;;;;;;;10.93;8.80;;;;;;;24.88;53.88;99689.59;5100886;28;20517;-69
2022/09/13 11:13:34;;;;;;;9.80;8.43;;;;;;;24.80;54.81;99688.06;5100893;28;20905;-68
2022/09/13 11:16:09;;;;;;;9.50;8.03;;;;;;;24.08;56.76;99692.25;5081038;28;20492;-69
2022/09/13 11:18:50;;;;;;;9.97;8.93;;;;;;;24.08;57.33;99688.66;5090448;28;20456;-68
2022/09/13 11:21:27;;;;;;;10.80;9.40;;;;;;;23.79;58.13;99688.63;5097793;28;20560;-68
2022/09/13 11:24:18;;;;;;;12.20;8.57;;;;;;;23.37;59.83;99691.53;5100484;28;20476;-68
2022/09/13 11:26:52;;;;;;;10.13;9.07;;;;;;;22.89;61.44;99691.47;5089921;28;20525;-68
2022/09/13 11:29:30;;;;;;;11.73;9.20;;;;;;;22.71;62.10;99686.97;5101593;28;20445;-68
2022/09/13 11:32:07;;;;;;;10.07;7.00;;;;;;;22.94;61.53;99694.34;5091730;28;20489;-67
2022/09/13 11:34:43;;;;;;;8.77;7.07;;;;;;;22.89;61.49;99685.22;5093197;28;20445;-68
2022/09/13 11:37:26;;;;;;;9.07;8.10;;;;;;;22.58;62.03;99695.34;5100466;28;21277;-68
2022/09/13 11:40:07;;;;;;;9.13;8.33;;;;;;;22.78;61.73;99697.75;5089655;28;20456;-68
2022/09/13 11:42:43;;;;;;;11.20;8.57;;;;;;;22.51;62.56;99691.88;5097117;28;20552;-69
2022/09/13 11:45:21;;;;;;;11.93;8.10;;;;;;;22.62;62.71;99692.97;5095455;28;20892;-68